Time;durP1;ratioP1;P1;durP2;ratioP2;P2;SDS_P1;SDS_P2;PMS_P1;PMS_P2;Temp;Humidity;BMP_temperature;BMP_pressure;BME280_temperature;BME280_humidity;BME280_pressure;Samples;Min_cycle;Max_cycle;Signal;HPM_P1;HPM_P2
2023/07/26 00:00:54;;;;;;;5.72;2.83;;;;;;;28.36;43.39;98518.28;4499785;31;34170;-65
2023/07/26 00:03:22;;;;;;;6.12;2.67;;;;;;;28.35;43.40;98518.56;4500659;31;33517;-64
2023/07/26 00:05:50;;;;;;;5.12;2.70;;;;;;;28.35;43.50;98515.81;4500941;31;33740;-64
2023/07/26 00:08:18;;;;;;;6.68;2.80;;;;;;;28.32;43.54;98521.87;4500724;31;35211;-62
2023/07/26 00:10:46;;;;;;;6.50;3.22;;;;;;;28.33;43.61;98528.97;4500948;31;35024;-65
2023/07/26 00:13:15;;;;;;;6.35;2.58;;;;;;;28.31;43.73;98525.72;4501162;31;33637;-65
2023/07/26 00:15:43;;;;;;;6.67;3.00;;;;;;;28.29;43.81;98509.53;4500827;31;34221;-65
2023/07/26 00:18:11;;;;;;;4.70;2.55;;;;;;;28.30;43.86;98494.69;4500641;31;34632;-60
2023/07/26 00:20:38;;;;;;;6.10;2.47;;;;;;;28.29;43.95;98505.97;4500816;31;34197;-64
2023/07/26 00:23:06;;;;;;;12.15;3.08;;;;;;;28.27;43.97;98498.03;4500697;31;34031;-61
2023/07/26 00:25:34;;;;;;;5.47;2.62;;;;;;;28.25;43.96;98491.19;4500533;31;33814;-61
2023/07/26 00:28:01;;;;;;;7.18;2.62;;;;;;;28.25;43.95;98477.50;4500600;31;34124;-65
2023/07/26 00:30:28;;;;;;;8.60;2.90;;;;;;;28.24;43.96;98465.69;4500792;31;34072;-66
2023/07/26 00:32:56;;;;;;;5.00;2.58;;;;;;;28.22;43.98;98455.03;4500500;31;33744;-66
2023/07/26 00:35:25;;;;;;;5.12;2.65;;;;;;;28.22;44.00;98444.06;4500500;31;34119;-64
2023/07/26 00:37:53;;;;;;;5.87;2.37;;;;;;;28.20;44.07;98427.06;4499451;31;34723;-66
2023/07/26 00:40:20;;;;;;;11.35;2.80;;;;;;;28.20;44.12;98418.84;4500409;31;34938;-65
2023/07/26 00:42:48;;;;;;;6.03;2.80;;;;;;;28.19;44.12;98410.91;4499448;31;34294;-65
2023/07/26 00:45:15;;;;;;;4.93;2.83;;;;;;;28.18;44.12;98418.31;4500669;31;33723;-65
2023/07/26 00:47:43;;;;;;;4.75;2.30;;;;;;;28.17;44.10;98407.66;4489632;31;34877;-65
2023/07/26 00:50:11;;;;;;;6.05;2.97;;;;;;;28.15;44.07;98391.47;4484831;32;34765;-65
2023/07/26 00:52:39;;;;;;;5.72;2.55;;;;;;;28.15;44.04;98385.97;4483474;32;33813;-65
2023/07/26 00:55:07;;;;;;;5.47;2.60;;;;;;;28.16;44.03;98390.34;4484667;32;33650;-65
2023/07/26 00:57:35;;;;;;;5.00;2.47;;;;;;;28.13;44.07;98404.66;4483458;32;34061;-66
2023/07/26 01:00:03;;;;;;;4.45;2.55;;;;;;;28.13;44.09;98387.41;4484740;32;34307;-66
2023/07/26 01:02:32;;;;;;;5.43;2.80;;;;;;;28.12;44.10;98391.22;4484649;32;33308;-65
2023/07/26 01:05:00;;;;;;;5.10;2.35;;;;;;;28.11;44.10;98389.59;4484659;32;33952;-66
2023/07/26 01:07:36;;;;;;;6.57;2.53;;;;;;;28.10;44.12;98379.75;4483381;32;34870;-65
2023/07/26 01:10:13;;;;;;;5.10;2.60;;;;;;;28.09;44.13;98372.63;4483369;32;34084;-66
2023/07/26 01:12:47;;;;;;;6.25;2.42;;;;;;;28.07;44.16;98364.72;4483366;32;33760;-62
2023/07/26 01:15:15;;;;;;;4.57;2.53;;;;;;;28.06;44.16;98365.81;4483432;32;33802;-65
2023/07/26 01:17:45;;;;;;;9.70;2.80;;;;;;;28.04;44.17;98359.81;4483334;32;33761;-65
2023/07/26 01:20:12;;;;;;;4.85;2.20;;;;;;;28.02;44.22;98337.31;4484418;32;34229;-65
2023/07/26 01:22:40;;;;;;;6.07;2.70;;;;;;;28.02;44.21;98331.03;4484643;32;33622;-65
2023/07/26 01:25:08;;;;;;;7.15;2.85;;;;;;;28.01;44.20;98340.37;4484591;32;34347;-65
2023/07/26 01:27:35;;;;;;;5.37;2.70;;;;;;;28.00;44.20;98352.44;4484226;32;34772;-65
2023/07/26 01:30:04;;;;;;;4.25;2.20;;;;;;;27.99;44.21;98348.09;4484865;32;35239;-66
2023/07/26 01:32:31;;;;;;;6.18;2.30;;;;;;;27.97;44.16;98346.44;4487661;31;33477;-65
2023/07/26 01:34:59;;;;;;;5.22;2.22;;;;;;;27.98;44.13;98333.56;4500126;31;34796;-65
2023/07/26 01:37:28;;;;;;;4.62;2.42;;;;;;;27.98;44.08;98311.63;4494973;31;33657;-64
2023/07/26 01:39:55;;;;;;;5.43;2.45;;;;;;;27.97;44.04;98308.03;4486215;31;33845;-66
2023/07/26 01:42:23;;;;;;;4.10;2.33;;;;;;;27.95;43.98;98318.50;4481299;31;33941;-64
2023/07/26 01:44:50;;;;;;;4.15;2.40;;;;;;;27.95;44.00;98332.22;4499010;31;33641;-65
2023/07/26 01:47:18;;;;;;;6.15;2.42;;;;;;;27.94;43.98;98336.06;4496772;31;33989;-66
2023/07/26 01:49:46;;;;;;;5.53;2.50;;;;;;;27.94;44.06;98341.53;4499993;31;34237;-65
2023/07/26 01:52:14;;;;;;;7.03;2.42;;;;;;;27.94;43.99;98346.22;4500104;31;33820;-66
2023/07/26 01:54:41;;;;;;;5.60;2.37;;;;;;;27.93;43.96;98364.59;4500361;31;33909;-63
2023/07/26 01:57:08;;;;;;;4.50;2.62;;;;;;;27.93;43.98;98366.50;4499959;31;34071;-63
2023/07/26 01:59:36;;;;;;;4.20;2.22;;;;;;;27.93;44.00;98374.72;4498876;31;35251;-65
2023/07/26 02:02:04;;;;;;;4.55;2.50;;;;;;;27.92;43.99;98378.56;4500065;31;33603;-65
2023/07/26 02:04:32;;;;;;;6.43;2.58;;;;;;;27.91;43.95;98380.50;4498655;31;34001;-65
2023/07/26 02:06:59;;;;;;;4.80;2.10;;;;;;;27.91;43.94;98394.22;4500037;31;34901;-66
2023/07/26 02:09:27;;;;;;;3.85;2.05;;;;;;;27.90;43.95;98395.31;4500211;31;34223;-66
2023/07/26 02:11:54;;;;;;;5.72;2.58;;;;;;;27.91;43.92;98396.94;4499720;31;33504;-65
2023/07/26 02:14:23;;;;;;;5.95;2.37;;;;;;;27.90;43.91;98391.75;4499867;31;34371;-65
2023/07/26 02:16:50;;;;;;;4.20;2.22;;;;;;;27.89;43.93;98396.44;4499948;31;34036;-66
2023/07/26 02:19:18;;;;;;;6.20;2.55;;;;;;;27.89;43.90;98401.91;4499715;31;34900;-65
2023/07/26 02:21:46;;;;;;;4.87;2.62;;;;;;;27.87;43.91;98404.09;4500124;31;34254;-65
2023/07/26 02:24:13;;;;;;;5.10;2.40;;;;;;;27.87;43.91;98412.34;4499854;31;34003;-65
2023/07/26 02:26:41;;;;;;;3.92;2.40;;;;;;;27.86;43.90;98416.19;4499704;31;34085;-66
2023/07/26 02:29:09;;;;;;;4.78;2.80;;;;;;;27.86;43.90;98424.41;4499956;31;33825;-66
2023/07/26 02:31:37;;;;;;;5.07;2.60;;;;;;;27.86;43.95;98420.84;4499791;31;34331;-64
2023/07/26 02:34:04;;;;;;;4.70;2.30;;;;;;;27.84;43.97;98423.91;4499791;31;33737;-65
2023/07/26 02:36:32;;;;;;;3.75;2.12;;;;;;;27.84;43.97;98423.91;4499581;31;33994;-66
2023/07/26 02:39:00;;;;;;;4.78;2.53;;;;;;;27.83;43.96;98421.41;4499976;31;34065;-65
2023/07/26 02:41:27;;;;;;;5.00;2.30;;;;;;;27.82;43.99;98436.25;4499482;31;33364;-65
2023/07/26 02:43:55;;;;;;;4.65;2.60;;;;;;;27.82;43.99;98433.50;4499698;31;34710;-65
2023/07/26 02:46:22;;;;;;;5.00;2.28;;;;;;;27.80;44.01;98425.56;4499487;31;33882;-65
2023/07/26 02:48:50;;;;;;;4.85;2.75;;;;;;;27.79;44.03;98420.38;4498068;31;34027;-65
2023/07/26 02:51:18;;;;;;;7.20;2.85;;;;;;;27.79;44.03;98420.38;4499582;31;33680;-66
2023/07/26 02:53:46;;;;;;;4.95;2.67;;;;;;;27.77;43.97;98417.91;4499506;31;34530;-63
2023/07/26 02:56:13;;;;;;;4.37;2.30;;;;;;;27.76;43.96;98418.22;4499461;31;34961;-64
2023/07/26 02:58:41;;;;;;;5.60;2.47;;;;;;;27.76;43.94;98412.75;4499420;31;33811;-65
2023/07/26 03:01:09;;;;;;;5.03;2.42;;;;;;;27.74;43.93;98407.53;4499352;31;32906;-66
2023/07/26 03:03:36;;;;;;;5.97;2.78;;;;;;;27.73;43.96;98410.56;4499348;31;33974;-64
2023/07/26 03:06:04;;;;;;;6.05;2.42;;;;;;;27.73;43.96;98405.09;4499275;31;34726;-65
2023/07/26 03:08:32;;;;;;;5.20;2.40;;;;;;;27.71;43.99;98408.94;4499139;31;34144;-65
2023/07/26 03:11:00;;;;;;;5.07;2.45;;;;;;;27.70;44.01;98412.75;4490826;31;34280;-62
2023/07/26 03:13:27;;;;;;;5.65;2.65;;;;;;;27.70;44.05;98412.75;4485432;32;34414;-65
2023/07/26 03:15:55;;;;;;;4.28;2.30;;;;;;;27.69;44.06;98411.09;4488473;31;33934;-65
2023/07/26 03:18:22;;;;;;;4.87;2.55;;;;;;;27.68;44.08;98408.66;4495729;31;34127;-63
2023/07/26 03:20:50;;;;;;;4.25;2.53;;;;;;;27.68;44.00;98414.13;4501287;31;33697;-61
2023/07/26 03:23:18;;;;;;;6.03;2.78;;;;;;;27.68;43.97;98414.94;4485217;32;34776;-61
2023/07/26 03:25:45;;;;;;;4.53;2.55;;;;;;;27.67;43.92;98418.81;4485359;32;34714;-61
2023/07/26 03:28:13;;;;;;;4.87;2.30;;;;;;;27.66;43.89;98428.12;4485392;32;34628;-62
2023/07/26 03:30:41;;;;;;;3.90;2.30;;;;;;;27.66;43.89;98427.31;4485019;32;33675;-62
2023/07/26 03:33:08;;;;;;;6.18;2.50;;;;;;;27.67;43.86;98442.66;4485997;31;33619;-61
2023/07/26 03:35:36;;;;;;;4.55;2.90;;;;;;;27.65;43.87;98448.44;4499870;31;34822;-60
2023/07/26 03:38:04;;;;;;;3.92;2.30;;;;;;;27.64;43.82;98441.28;4500933;31;34042;-65
2023/07/26 03:40:33;;;;;;;5.22;2.70;;;;;;;27.65;43.82;98447.59;4499922;31;33376;-65
2023/07/26 03:43:01;;;;;;;5.10;2.70;;;;;;;27.65;43.77;98451.16;4500972;31;34393;-65
2023/07/26 03:45:29;;;;;;;8.75;2.70;;;;;;;27.64;43.79;98455.00;4500924;31;34896;-65
2023/07/26 03:47:56;;;;;;;6.35;2.70;;;;;;;27.65;43.79;98472.25;4489326;31;34064;-62
2023/07/26 03:50:24;;;;;;;5.43;2.40;;;;;;;27.64;43.78;98487.06;4483991;32;34176;-65
2023/07/26 03:52:52;;;;;;;6.20;2.40;;;;;;;27.65;43.72;98485.94;4485084;32;33872;-65
2023/07/26 03:55:19;;;;;;;5.45;2.30;;;;;;;27.64;43.67;98496.09;4485159;32;34014;-63
2023/07/26 03:57:47;;;;;;;3.95;2.40;;;;;;;27.65;43.60;98485.94;4471021;32;33300;-65
2023/07/26 04:00:14;;;;;;;5.95;2.80;;;;;;;27.66;43.54;98488.44;4484992;32;33537;-65
2023/07/26 04:02:42;;;;;;;4.78;2.50;;;;;;;27.63;43.51;98478.03;4485085;32;33533;-65
2023/07/26 04:05:11;;;;;;;3.83;2.40;;;;;;;27.63;43.42;98485.44;4485430;32;33726;-63
2023/07/26 04:07:39;;;;;;;4.37;1.80;;;;;;;27.64;43.27;98484.31;4485123;32;34203;-62
2023/07/26 04:10:07;;;;;;;4.07;2.30;;;;;;;27.61;43.21;98482.97;4488558;31;33464;-61
2023/07/26 04:12:34;;;;;;;4.47;2.25;;;;;;;27.61;43.07;98477.50;4500891;31;33933;-62
2023/07/26 04:15:02;;;;;;;3.12;1.98;;;;;;;27.60;42.91;98483.25;4500749;31;33492;-60
2023/07/26 04:17:31;;;;;;;4.18;1.98;;;;;;;27.60;42.84;98494.22;4500896;31;33836;-60
2023/07/26 04:19:59;;;;;;;4.30;1.92;;;;;;;27.59;42.78;98498.06;4500852;31;33198;-61
2023/07/26 04:22:26;;;;;;;4.28;2.15;;;;;;;27.58;42.68;98497.25;4499916;31;33529;-61
2023/07/26 04:24:54;;;;;;;4.12;1.98;;;;;;;27.58;42.55;98505.47;4500713;31;33891;-60
2023/07/26 04:27:22;;;;;;;5.80;2.20;;;;;;;27.57;42.47;98506.56;4499516;31;34162;-60
2023/07/26 04:29:49;;;;;;;2.75;1.50;;;;;;;27.56;42.37;98504.09;4500521;31;33555;-60
2023/07/26 04:32:17;;;;;;;3.22;1.80;;;;;;;27.56;42.26;98504.09;4499171;31;33917;-62
2023/07/26 04:34:45;;;;;;;3.30;2.05;;;;;;;27.56;42.26;98498.63;4484937;32;34086;-60
2023/07/26 04:37:12;;;;;;;9.50;2.05;;;;;;;27.53;42.07;98497.28;4484778;32;34907;-62
2023/07/26 04:39:40;;;;;;;4.47;1.87;;;;;;;27.53;41.99;98486.31;4484896;32;34409;-61
2023/07/26 04:42:07;;;;;;;4.68;2.00;;;;;;;27.53;41.93;98491.81;4484937;32;34311;-62
2023/07/26 04:44:35;;;;;;;8.75;2.12;;;;;;;27.51;41.77;98488.50;4484957;32;34663;-60
2023/07/26 04:47:03;;;;;;;3.78;1.85;;;;;;;27.51;41.68;98491.25;4490470;31;34195;-61
2023/07/26 04:49:31;;;;;;;3.10;1.70;;;;;;;27.51;41.68;98499.47;4500523;31;33410;-65
2023/07/26 04:51:58;;;;;;;4.57;1.73;;;;;;;27.50;41.63;98497.84;4499184;31;33394;-65
2023/07/26 04:54:25;;;;;;;3.03;1.70;;;;;;;27.49;41.47;98493.47;4499349;31;33693;-66
2023/07/26 04:56:53;;;;;;;3.40;1.60;;;;;;;27.48;41.51;98502.00;4500517;31;34380;-60
2023/07/26 04:59:21;;;;;;;5.12;1.67;;;;;;;27.46;41.46;98503.06;4500652;31;33538;-60
2023/07/26 05:01:48;;;;;;;5.12;1.75;;;;;;;27.46;41.35;98494.03;4500579;31;34610;-65
2023/07/26 05:04:16;;;;;;;3.87;1.60;;;;;;;27.45;41.33;98501.44;4500389;31;34113;-61
2023/07/26 05:06:44;;;;;;;3.42;1.70;;;;;;;27.45;41.42;98498.69;4500493;31;33738;-65
2023/07/26 05:09:11;;;;;;;4.60;2.10;;;;;;;27.46;41.39;98496.78;4500709;31;33621;-62
2023/07/26 05:11:39;;;;;;;4.80;1.70;;;;;;;27.45;41.34;98495.97;4500263;31;33792;-61
2023/07/26 05:14:06;;;;;;;4.15;1.80;;;;;;;27.45;41.31;98489.66;4500355;31;34086;-61
2023/07/26 05:16:34;;;;;;;3.10;1.50;;;;;;;27.43;41.23;98491.87;4500412;31;34830;-61
2023/07/26 05:19:02;;;;;;;3.90;1.65;;;;;;;27.44;41.17;98490.78;4500302;31;33329;-61
2023/07/26 05:21:29;;;;;;;3.37;1.37;;;;;;;27.43;41.13;98506.41;4500594;31;33910;-62
2023/07/26 05:23:57;;;;;;;3.67;1.75;;;;;;;27.43;41.11;98513.81;4500275;31;34813;-61
2023/07/26 05:26:25;;;;;;;2.45;1.55;;;;;;;27.42;41.04;98514.91;4500377;31;34014;-62
2023/07/26 05:28:52;;;;;;;3.92;1.62;;;;;;;27.41;40.98;98507.78;4500563;31;33567;-60
2023/07/26 05:31:20;;;;;;;3.17;1.50;;;;;;;27.40;40.88;98506.94;4500135;31;34741;-60
2023/07/26 05:33:48;;;;;;;3.87;1.35;;;;;;;27.41;40.95;98513.25;4499965;31;34824;-61
2023/07/26 05:36:15;;;;;;;3.30;1.35;;;;;;;27.39;40.88;98508.06;4500274;31;34312;-61
2023/07/26 05:38:43;;;;;;;3.67;1.62;;;;;;;27.40;40.93;98517.09;4500264;31;34389;-61
2023/07/26 05:41:10;;;;;;;3.83;1.40;;;;;;;27.38;40.92;98516.56;4500202;31;33597;-61
2023/07/26 05:43:38;;;;;;;2.50;1.48;;;;;;;27.38;40.85;98519.31;4500249;31;33730;-61
2023/07/26 05:46:07;;;;;;;2.55;1.48;;;;;;;27.38;40.93;98516.56;4500586;31;34519;-60
2023/07/26 05:48:35;;;;;;;3.67;1.80;;;;;;;27.37;40.91;98513.03;4483015;32;32308;-60
2023/07/26 05:51:03;;;;;;;4.50;1.60;;;;;;;27.38;40.84;98525.59;4484324;32;33871;-62
2023/07/26 05:53:30;;;;;;;4.22;1.83;;;;;;;27.37;40.96;98521.25;4484377;32;34864;-60
2023/07/26 05:55:58;;;;;;;3.08;1.40;;;;;;;27.36;40.79;98536.00;4490359;31;33838;-62
2023/07/26 05:58:25;;;;;;;2.90;1.50;;;;;;;27.36;40.86;98527.78;4500194;31;33584;-66
2023/07/26 06:00:53;;;;;;;2.47;1.20;;;;;;;27.35;40.80;98530.81;4500137;31;33844;-64
2023/07/26 06:03:22;;;;;;;3.65;1.65;;;;;;;27.33;40.58;98533.84;4499642;31;34154;-63
2023/07/26 06:05:50;;;;;;;3.85;1.50;;;;;;;27.31;40.47;98535.22;4500014;31;34904;-73
2023/07/26 06:08:19;;;;;;;3.70;1.70;;;;;;;27.26;40.23;98529.78;4498862;31;33494;-69
2023/07/26 06:10:46;;;;;;;2.67;1.40;;;;;;;27.19;40.08;98550.09;4499809;31;33721;-67
2023/07/26 06:13:14;;;;;;;7.15;1.62;;;;;;;27.11;40.18;98547.94;4496128;31;34726;-61
2023/07/26 06:15:42;;;;;;;4.55;1.70;;;;;;;27.08;40.49;98551.22;4484199;32;34243;-65
2023/07/26 06:18:10;;;;;;;3.35;1.42;;;;;;;27.06;40.90;98542.44;4493759;31;33209;-66
2023/07/26 06:20:37;;;;;;;5.37;1.58;;;;;;;27.09;41.15;98550.16;4499908;31;33521;-64
2023/07/26 06:23:06;;;;;;;3.17;1.40;;;;;;;27.12;41.33;98559.69;4499852;31;34634;-71
2023/07/26 06:25:34;;;;;;;4.00;1.47;;;;;;;27.15;41.44;98554.47;4499584;31;34748;-67
2023/07/26 06:28:01;;;;;;;3.17;1.70;;;;;;;27.19;41.51;98547.34;4499932;31;34344;-69
2023/07/26 06:30:29;;;;;;;4.25;1.70;;;;;;;27.21;41.58;98550.63;4499404;31;33842;-62
2023/07/26 06:32:57;;;;;;;4.12;1.67;;;;;;;27.25;41.63;98547.31;4499632;31;34164;-69
2023/07/26 06:35:25;;;;;;;5.45;1.60;;;;;;;27.28;41.68;98558.53;4499651;31;33648;-70
2023/07/26 06:37:52;;;;;;;4.47;1.90;;;;;;;27.31;41.71;98559.87;4499569;31;34103;-70
2023/07/26 06:40:20;;;;;;;4.50;1.50;;;;;;;27.34;41.78;98567.53;4494729;31;34488;-62
2023/07/26 06:42:47;;;;;;;3.62;1.48;;;;;;;27.36;41.82;98573.53;4490584;31;34088;-63
2023/07/26 06:45:15;;;;;;;2.12;1.33;;;;;;;27.39;41.85;98573.00;4482928;31;35421;-73
2023/07/26 06:47:43;;;;;;;6.25;1.87;;;;;;;27.42;41.87;98578.72;4485515;31;33701;-62
2023/07/26 06:50:10;;;;;;;6.03;1.70;;;;;;;27.44;41.98;98583.91;4490415;31;33989;-73
2023/07/26 06:52:38;;;;;;;5.50;1.77;;;;;;;27.45;42.03;98580.06;4489826;31;34870;-70
2023/07/26 06:55:06;;;;;;;8.98;1.77;;;;;;;27.46;42.05;98581.69;4489392;31;34095;-68
2023/07/26 06:57:33;;;;;;;5.35;1.60;;;;;;;27.48;42.06;98589.66;4486829;31;33928;-67
2023/07/26 07:00:01;;;;;;;6.37;1.67;;;;;;;27.48;42.06;98597.87;4484790;31;34263;-73
2023/07/26 07:02:29;;;;;;;5.32;1.50;;;;;;;27.49;42.07;98597.56;4483220;32;33725;-67
2023/07/26 07:04:56;;;;;;;4.12;1.70;;;;;;;27.50;42.09;98607.44;4491595;31;35161;-68
2023/07/26 07:07:24;;;;;;;4.55;1.70;;;;;;;27.50;42.10;98607.44;4482550;31;33579;-73
2023/07/26 07:09:52;;;;;;;6.87;1.80;;;;;;;27.53;42.10;98611.53;4497199;31;33541;-72
2023/07/26 07:12:19;;;;;;;5.60;2.03;;;;;;;27.54;42.11;98616.72;4494914;31;33755;-70
2023/07/26 07:14:47;;;;;;;6.40;1.45;;;;;;;27.53;42.14;98609.62;4489967;31;34275;-74
2023/07/26 07:17:15;;;;;;;3.97;1.85;;;;;;;27.54;42.17;98615.91;4484936;31;33481;-64
2023/07/26 07:19:45;;;;;;;5.25;1.83;;;;;;;27.54;42.19;98610.44;4498768;31;33710;-64
2023/07/26 07:22:12;;;;;;;;;;;;;;;27.58;42.17;98617.81;4499323;31;33829;-65
2023/07/26 07:24:40;;;;;;;8.02;1.60;;;;;;;27.66;41.96;98622.69;4494846;31;34665;-66
2023/07/26 07:27:07;;;;;;;4.28;1.40;;;;;;;27.58;41.98;98628.75;4497698;31;33487;-64
2023/07/26 07:29:35;;;;;;;4.10;1.73;;;;;;;27.53;41.99;98628.78;4498461;31;34019;-67
2023/07/26 07:32:05;;;;;;;3.58;1.40;;;;;;;27.52;41.99;98629.09;4486193;31;33531;-69
2023/07/26 07:34:48;;;;;;;12.15;1.70;;;;;;;27.49;41.94;98630.47;4491268;31;34041;-62
2023/07/26 07:37:15;;;;;;;7.65;2.03;;;;;;;27.46;42.10;98636.50;4484746;31;34468;-61
2023/07/26 07:39:43;;;;;;;6.75;1.75;;;;;;;27.43;42.25;98640.62;4493139;31;33977;-66
2023/07/26 07:42:10;;;;;;;4.53;1.70;;;;;;;27.44;42.30;98636.78;4488764;31;34053;-62
2023/07/26 07:44:38;;;;;;;5.15;1.80;;;;;;;27.47;42.35;98643.63;4493831;31;34485;-64
2023/07/26 07:47:06;;;;;;;2.40;1.48;;;;;;;27.49;42.38;98654.28;4498441;31;33512;-61
2023/07/26 07:49:38;;;;;;;4.65;1.67;;;;;;;27.51;42.42;98655.62;4498170;31;33814;-66
2023/07/26 07:52:07;;;;;;;5.25;1.62;;;;;;;27.52;42.45;98656.47;4497958;31;34794;-64
2023/07/26 07:54:35;;;;;;;4.28;1.60;;;;;;;27.54;42.50;98657.81;4498271;31;34788;-66
2023/07/26 07:57:02;;;;;;;2.78;1.30;;;;;;;27.56;42.53;98660.28;4498581;31;33762;-62
2023/07/26 07:59:30;;;;;;;2.97;1.37;;;;;;;27.57;42.52;98665.50;4500304;31;33421;-62
2023/07/26 08:01:57;;;;;;;2.67;1.40;;;;;;;27.59;42.57;98663.28;4500488;31;34771;-61
2023/07/26 08:04:26;;;;;;;6.57;1.80;;;;;;;27.61;42.60;98663.03;4500145;31;33707;-62
2023/07/26 08:06:53;;;;;;;4.70;1.70;;;;;;;27.62;42.67;98659.16;4500549;31;33629;-62
2023/07/26 08:09:23;;;;;;;2.58;1.48;;;;;;;27.65;42.68;98661.31;4500538;31;33696;-59
2023/07/26 08:11:51;;;;;;;4.32;1.52;;;;;;;27.67;42.70;98661.88;4500223;31;33502;-62
2023/07/26 08:14:18;;;;;;;5.28;1.85;;;;;;;27.68;42.73;98667.06;4500508;31;33849;-61
2023/07/26 08:16:46;;;;;;;4.95;1.70;;;;;;;27.71;42.80;98662.97;4500692;31;34445;-65
2023/07/26 08:19:14;;;;;;;5.87;1.70;;;;;;;27.73;42.81;98662.69;4500307;31;34660;-61
2023/07/26 08:21:42;;;;;;;5.25;1.85;;;;;;;27.74;42.84;98661.59;4500035;31;33901;-60
2023/07/26 08:24:09;;;;;;;6.15;1.62;;;;;;;27.76;42.86;98662.16;4500044;31;35360;-65
2023/07/26 08:26:37;;;;;;;7.10;1.85;;;;;;;27.78;42.86;98665.41;4500141;31;32887;-65
2023/07/26 08:29:05;;;;;;;3.97;1.48;;;;;;;27.78;42.91;98666.22;4500283;31;34531;-65
2023/07/26 08:31:32;;;;;;;4.82;1.30;;;;;;;27.80;42.91;98675.00;4500091;31;33995;-66
2023/07/26 08:34:01;;;;;;;3.62;1.40;;;;;;;27.81;42.97;98684.03;4500323;31;34746;-65
2023/07/26 08:36:28;;;;;;;4.72;1.50;;;;;;;27.82;43.02;98685.69;4500358;31;33727;-65
2023/07/26 08:38:56;;;;;;;5.72;1.65;;;;;;;27.82;43.12;98688.41;4500308;31;33817;-61
2023/07/26 08:41:24;;;;;;;4.07;1.55;;;;;;;27.85;43.17;98693.34;4500226;31;34133;-62
2023/07/26 08:43:52;;;;;;;3.87;1.42;;;;;;;27.85;43.21;98694.16;4499155;31;33772;-64
2023/07/26 08:46:19;;;;;;;3.08;1.37;;;;;;;27.87;43.25;98689.19;4499197;31;33158;-63
2023/07/26 08:48:47;;;;;;;2.28;1.40;;;;;;;27.89;43.24;98688.94;4499008;31;33624;-60
2023/07/26 08:51:14;;;;;;;2.97;1.30;;;;;;;27.89;43.25;98711.69;4498964;31;34042;-61
2023/07/26 08:53:42;;;;;;;4.95;1.67;;;;;;;27.91;43.25;98708.66;4498911;31;34855;-61
2023/07/26 08:56:10;;;;;;;5.82;1.40;;;;;;;27.92;43.33;98713.03;4498885;31;33503;-60
2023/07/26 08:58:37;;;;;;;3.83;1.40;;;;;;;27.93;43.31;98718.25;4498924;31;33717;-62
2023/07/26 09:01:05;;;;;;;5.47;1.70;;;;;;;27.93;43.36;98722.88;4500546;31;33867;-65
2023/07/26 09:03:32;;;;;;;3.30;1.25;;;;;;;27.95;43.30;98724.25;4499647;31;33492;-63
2023/07/26 09:06:08;;;;;;;2.75;1.55;;;;;;;27.96;43.35;98725.06;4500163;31;34416;-62
2023/07/26 09:08:36;;;;;;;6.30;1.58;;;;;;;27.96;43.42;98728.63;4486127;31;33837;-64
2023/07/26 09:11:26;;;;;;;3.20;1.60;;;;;;;27.97;43.34;98735.75;4500472;31;33937;-65
2023/07/26 09:13:58;;;;;;;6.47;1.50;;;;;;;28.01;43.24;98737.94;4486112;31;34807;-69
2023/07/26 09:16:27;;;;;;;8.27;1.85;;;;;;;27.97;43.22;98743.16;4486320;31;34285;-62
2023/07/26 09:19:04;;;;;;;6.57;1.92;;;;;;;27.97;43.17;98748.63;4500212;31;33495;-66
2023/07/26 09:21:35;;;;;;;7.70;1.50;;;;;;;27.99;43.11;98738.22;4500059;31;33924;-64
2023/07/26 09:24:04;;;;;;;3.53;1.37;;;;;;;27.97;43.06;98729.44;4499733;31;33968;-63
2023/07/26 09:26:39;;;;;;;2.42;1.25;;;;;;;27.97;42.99;98729.44;4499719;31;34505;-62
2023/07/26 09:29:11;;;;;;;4.25;1.67;;;;;;;27.98;42.94;98728.37;4498705;31;33915;-64
2023/07/26 09:31:42;;;;;;;2.37;1.40;;;;;;;27.97;42.88;98718.47;4498616;31;33993;-61
2023/07/26 09:34:12;;;;;;;3.75;1.50;;;;;;;27.97;42.83;98723.97;4500248;31;34038;-69
2023/07/26 09:36:50;;;;;;;2.65;1.15;;;;;;;27.97;42.81;98727.53;4485794;31;33485;-68
2023/07/26 09:39:22;;;;;;;5.03;1.23;;;;;;;27.98;42.80;98731.09;4499980;31;33589;-70
2023/07/26 09:41:50;;;;;;;2.62;1.35;;;;;;;27.96;42.81;98717.66;4499766;31;35313;-65
2023/07/26 09:44:19;;;;;;;3.75;1.48;;;;;;;27.98;42.77;98714.66;4498581;31;34532;-63
2023/07/26 09:46:50;;;;;;;2.03;1.25;;;;;;;27.97;42.77;98713.00;4499949;31;34621;-64
2023/07/26 09:49:19;;;;;;;2.60;1.23;;;;;;;27.96;42.79;98709.44;4499274;31;33998;-65
2023/07/26 09:51:54;;;;;;;4.22;1.50;;;;;;;27.97;42.78;98711.06;4499647;31;35036;-63
2023/07/26 09:54:26;;;;;;;2.25;1.37;;;;;;;27.97;42.78;98713.81;4499741;31;33459;-62
2023/07/26 09:56:59;;;;;;;2.05;1.08;;;;;;;27.99;42.77;98723.69;4499765;31;34807;-70
2023/07/26 09:59:28;;;;;;;4.22;1.40;;;;;;;27.99;42.76;98731.94;4499795;31;33979;-64
2023/07/26 10:01:59;;;;;;;3.22;1.67;;;;;;;27.98;42.76;98739.34;4499788;31;33254;-65
2023/07/26 10:04:45;;;;;;;2.85;1.40;;;;;;;28.00;42.76;98722.59;4499658;31;35052;-65
2023/07/26 10:07:13;;;;;;;2.62;1.37;;;;;;;28.02;42.73;98728.59;4499765;31;33735;-67
2023/07/26 10:09:43;;;;;;;3.10;1.35;;;;;;;27.99;42.78;98729.19;4499596;31;33634;-61
2023/07/26 10:12:11;;;;;;;4.10;1.70;;;;;;;27.97;42.79;98729.44;4485334;31;33976;-64
2023/07/26 10:14:39;;;;;;;2.25;1.27;;;;;;;28.00;42.75;98730.81;4498211;31;34832;-62
2023/07/26 10:17:07;;;;;;;2.30;1.25;;;;;;;27.99;42.78;98746.44;4498300;31;33456;-70
2023/07/26 10:19:35;;;;;;;3.70;1.70;;;;;;;27.99;42.79;98740.97;4499029;31;34055;-67
2023/07/26 10:22:03;;;;;;;5.50;1.37;;;;;;;27.99;42.77;98740.97;4485409;31;34030;-66
2023/07/26 10:24:31;;;;;;;2.60;1.20;;;;;;;27.99;42.78;98746.44;4498206;31;34221;-71
2023/07/26 10:27:00;;;;;;;3.15;1.52;;;;;;;28.00;42.75;98742.59;4499477;31;33703;-62
2023/07/26 10:29:27;;;;;;;3.03;1.30;;;;;;;27.99;42.76;98732.75;4499481;31;34079;-65
2023/07/26 10:32:06;;;;;;;2.65;1.40;;;;;;;28.00;42.75;98745.34;4493665;31;34823;-68
2023/07/26 10:34:33;;;;;;;2.17;1.40;;;;;;;28.01;42.74;98746.97;4498140;31;35106;-70
2023/07/26 10:37:15;;;;;;;3.72;1.50;;;;;;;28.01;42.73;98735.19;4481757;31;33137;-71
2023/07/26 10:39:44;;;;;;;3.20;1.20;;;;;;;28.03;42.70;98739.31;4497089;31;34009;-69
2023/07/26 10:42:28;;;;;;;2.33;1.30;;;;;;;28.00;42.71;98741.78;4497992;31;33731;-70
2023/07/26 10:44:58;;;;;;;4.20;1.52;;;;;;;28.02;42.58;98745.06;4484395;31;33931;-69
2023/07/26 10:47:25;;;;;;;3.67;1.55;;;;;;;27.96;42.38;98742.34;4497286;31;34252;-65
2023/07/26 10:49:54;;;;;;;6.78;1.40;;;;;;;27.95;42.23;98748.94;4497449;31;34292;-67
2023/07/26 10:52:21;;;;;;;3.92;1.60;;;;;;;27.95;41.98;98751.66;4484443;31;34031;-66
2023/07/26 10:54:50;;;;;;;2.53;1.48;;;;;;;27.95;41.81;98750.84;4497670;31;34165;-66
2023/07/26 10:57:20;;;;;;;1.90;1.37;;;;;;;27.94;41.65;98754.72;4498325;31;33707;-67
2023/07/26 10:59:58;;;;;;;1.85;1.35;;;;;;;27.92;41.68;98757.72;4499823;31;33409;-66
2023/07/26 11:02:45;;;;;;;2.78;1.50;;;;;;;27.94;41.71;98757.44;4499301;31;33916;-68
2023/07/26 11:05:22;;;;;;;3.42;1.40;;;;;;;27.94;41.75;98749.22;4494515;31;34174;-67
2023/07/26 11:08:05;;;;;;;1.90;1.40;;;;;;;27.92;41.76;98748.66;4499310;31;33651;-64
2023/07/26 11:10:36;;;;;;;1.85;1.20;;;;;;;27.91;41.83;98753.34;4499571;31;34038;-69
2023/07/26 11:13:18;;;;;;;2.22;1.20;;;;;;;27.89;41.85;98749.25;4497864;31;33734;-68
2023/07/26 11:15:48;;;;;;;4.03;1.65;;;;;;;27.90;41.90;98761.84;4497768;31;35282;-63
2023/07/26 11:18:40;;;;;;;2.53;1.40;;;;;;;27.88;41.93;98764.84;4487363;31;33970;-62
2023/07/26 11:21:15;;;;;;;3.42;1.48;;;;;;;27.88;41.99;98764.84;4497637;31;33610;-62
2023/07/26 11:23:43;;;;;;;2.37;1.30;;;;;;;27.88;42.01;98761.28;4491364;31;33721;-68
2023/07/26 11:26:11;;;;;;;3.58;1.58;;;;;;;27.88;42.01;98747.59;4489426;31;33851;-65
2023/07/26 11:28:40;;;;;;;2.72;1.33;;;;;;;27.89;42.01;98758.28;4489527;31;34447;-67
2023/07/26 11:31:08;;;;;;;2.65;1.25;;;;;;;27.88;42.02;98747.59;4489217;31;33984;-62
2023/07/26 11:33:36;;;;;;;3.58;1.30;;;;;;;27.88;42.01;98742.91;4489199;31;34446;-62
2023/07/26 11:36:07;;;;;;;2.08;1.20;;;;;;;27.88;42.00;98742.91;4489750;31;34893;-70
2023/07/26 11:38:35;;;;;;;1.55;1.27;;;;;;;27.88;42.02;98753.06;4481678;32;34375;-69
2023/07/26 11:41:03;;;;;;;2.47;1.30;;;;;;;27.89;42.00;98749.25;4483856;32;34966;-68